Time;durP1;ratioP1;P1;durP2;ratioP2;P2;SDS_P1;SDS_P2;PMS_P1;PMS_P2;Temp;Humidity;BMP_temperature;BMP_pressure;BME280_temperature;BME280_humidity;BME280_pressure;Samples;Min_cycle;Max_cycle;Signal;HPM_P1;HPM_P2
2024/02/10 00:00:28;;;;;;;85.60;37.00;;;;;;;2.90;97.10;98651.94;103180;1313;23360;-56
2024/02/10 00:02:54;;;;;;;82.20;37.60;;;;;;;2.92;97.00;98657.19;103127;1318;25388;-56
2024/02/10 00:05:23;;;;;;;85.10;37.70;;;;;;;2.93;97.23;98649.67;103056;1317;22994;-57
2024/02/10 00:07:55;;;;;;;92.70;39.10;;;;;;;2.97;97.20;98649.27;103505;1318;22609;-55
2024/02/10 00:10:25;;;;;;;87.70;38.50;;;;;;;2.98;97.13;98643.30;102921;1313;22629;-57
2024/02/10 00:12:57;;;;;;;90.80;39.40;;;;;;;3.00;97.16;98644.80;105006;1318;22931;-57
2024/02/10 00:15:24;;;;;;;88.30;39.20;;;;;;;3.04;97.33;98640.82;104522;1317;284738;-55
2024/02/10 00:17:50;;;;;;;92.50;38.50;;;;;;;3.07;97.41;98642.30;104472;1298;250413;-56
2024/02/10 00:20:20;;;;;;;93.00;39.70;;;;;;;3.10;97.41;98638.33;103455;1310;23985;-56
2024/02/10 00:22:47;;;;;;;84.50;37.50;;;;;;;3.12;97.37;98639.12;103089;1316;22581;-58
2024/02/10 00:25:16;;;;;;;85.10;37.70;;;;;;;3.14;97.21;98641.11;103046;1318;22572;-57
2024/02/10 00:27:46;;;;;;;85.00;39.20;;;;;;;3.14;97.11;98634.15;103152;1297;22625;-58
2024/02/10 00:30:13;;;;;;;81.80;38.50;;;;;;;3.14;97.21;98636.70;103125;1318;22823;-56
2024/02/10 00:32:40;;;;;;;86.70;37.90;;;;;;;3.13;97.17;98639.60;104507;1318;22636;-57
2024/02/10 00:35:06;;;;;;;81.70;37.80;;;;;;;3.14;97.25;98642.98;103320;1318;25338;-59
2024/02/10 00:37:32;;;;;;;87.80;37.20;;;;;;;3.15;97.30;98649.94;104099;1313;22583;-58
2024/02/10 00:39:58;;;;;;;83.80;38.70;;;;;;;3.16;97.42;98653.34;103109;1295;22583;-56
2024/02/10 00:42:27;;;;;;;85.70;37.40;;;;;;;3.18;97.43;98651.09;103038;1313;24136;-57
2024/02/10 00:44:54;;;;;;;87.90;39.00;;;;;;;3.20;97.42;98652.09;103362;1310;22640;-58
2024/02/10 00:47:20;;;;;;;95.40;40.60;;;;;;;3.21;97.53;98653.94;104341;1300;22715;-55
2024/02/10 00:49:48;;;;;;;93.50;40.30;;;;;;;3.23;97.45;98651.16;103138;1297;23342;-56
2024/02/10 00:52:18;;;;;;;82.60;38.70;;;;;;;3.23;97.41;98653.71;103103;1310;22775;-53
2024/02/10 00:54:47;;;;;;;92.30;40.70;;;;;;;3.24;97.49;98655.07;103047;1313;22836;-56
2024/02/10 00:57:13;;;;;;;92.80;40.70;;;;;;;3.26;97.52;98654.36;103115;1293;22601;-56
2024/02/10 00:59:42;;;;;;;96.10;39.10;;;;;;;3.26;97.47;98653.34;103267;1310;22567;-55
2024/02/10 01:02:17;;;;;;;95.00;39.80;;;;;;;3.27;97.61;98655.19;103160;1316;22614;-57
2024/02/10 01:04:44;;;;;;;101.10;42.70;;;;;;;3.29;97.64;98651.75;105302;1310;22604;-56
2024/02/10 01:07:09;;;;;;;96.60;41.50;;;;;;;3.30;97.67;98648.48;103202;1295;23765;-56
2024/02/10 01:09:38;;;;;;;91.40;40.90;;;;;;;3.32;97.64;98649.65;103229;1295;22564;-56
2024/02/10 01:12:05;;;;;;;98.70;43.10;;;;;;;3.32;97.58;98654.59;103588;1310;22565;-57
2024/02/10 01:14:32;;;;;;;98.60;42.40;;;;;;;3.34;97.69;98655.92;103275;1310;22563;-56
2024/02/10 01:16:58;;;;;;;97.40;41.10;;;;;;;3.35;97.62;98655.90;103525;1295;22696;-56
2024/02/10 01:19:28;;;;;;;97.20;43.30;;;;;;;3.34;97.59;98653.88;103215;1298;22568;-57
2024/02/10 01:21:55;;;;;;;96.60;43.50;;;;;;;3.34;97.70;98650.46;103441;1301;25573;-57
2024/02/10 01:24:27;;;;;;;96.50;40.70;;;;;;;3.36;97.77;98647.71;103838;1294;22592;-58
2024/02/10 01:26:54;;;;;;;87.00;40.60;;;;;;;3.35;97.59;98655.21;105084;1316;22575;-58
2024/02/10 01:29:19;;;;;;;89.40;39.60;;;;;;;3.36;97.55;98651.96;103206;1296;23714;-57
2024/02/10 01:31:46;;;;;;;93.70;41.70;;;;;;;3.36;97.56;98650.77;103164;1307;23017;-57
2024/02/10 01:34:15;;;;;;;93.10;38.40;;;;;;;3.38;97.57;98650.91;103268;1315;22677;-56
2024/02/10 01:36:41;;;;;;;89.10;39.60;;;;;;;3.39;97.57;98653.10;103335;1310;22577;-57
2024/02/10 01:39:06;;;;;;;93.10;41.30;;;;;;;3.39;97.64;98657.36;103190;1297;22586;-57
2024/02/10 01:41:32;;;;;;;97.10;42.70;;;;;;;3.41;97.86;98652.39;103170;1316;22940;-57
2024/02/10 01:43:58;;;;;;;89.40;39.10;;;;;;;3.43;97.90;98656.08;103229;1310;22601;-57
2024/02/10 01:46:25;;;;;;;101.30;42.00;;;;;;;3.45;97.74;98654.68;103257;1310;22643;-57
2024/02/10 01:48:51;;;;;;;92.10;38.00;;;;;;;3.45;97.70;98657.25;103198;1298;25624;-57
2024/02/10 01:51:20;;;;;;;88.80;39.40;;;;;;;3.45;97.76;98659.11;103289;1313;25413;-57
2024/02/10 01:53:47;;;;;;;87.60;40.40;;;;;;;3.47;97.82;98659.25;103279;1311;23962;-54
2024/02/10 01:56:17;;;;;;;84.50;39.20;;;;;;;3.47;97.74;98656.52;103257;1316;22558;-58
2024/02/10 01:58:47;;;;;;;93.50;41.00;;;;;;;3.48;97.65;98651.21;103198;1306;23973;-57
2024/02/10 02:01:16;;;;;;;93.30;39.10;;;;;;;3.48;97.58;98650.89;103633;1310;22625;-58
2024/02/10 02:03:43;;;;;;;99.90;41.90;;;;;;;3.48;97.79;98651.90;104280;1308;24171;-58
2024/02/10 02:06:13;;;;;;;;;;;;;;;3.50;97.71;98651.55;103481;1311;24326;-56
2024/02/10 02:08:39;;;;;;;87.70;38.50;;;;;;;3.50;97.87;98649.15;103174;1295;22692;-57
2024/02/10 02:11:05;;;;;;;101.10;41.70;;;;;;;3.50;97.91;98649.14;103319;1300;22979;-56
2024/02/10 02:13:31;;;;;;;90.40;39.40;;;;;;;3.53;98.00;98651.80;103183;1316;22953;-55
2024/02/10 02:16:00;;;;;;;92.70;38.40;;;;;;;3.55;98.01;98647.52;105471;1308;22690;-55
2024/02/10 02:18:26;;;;;;;89.30;39.30;;;;;;;3.55;97.83;98647.86;104225;1295;22684;-56
2024/02/10 02:20:52;;;;;;;89.70;40.40;;;;;;;3.55;97.81;98651.60;103030;1311;22585;-58
2024/02/10 02:23:18;;;;;;;88.60;39.50;;;;;;;3.56;97.88;98649.36;103238;1304;22637;-52
2024/02/10 02:25:50;;;;;;;96.10;40.80;;;;;;;3.55;97.82;98648.52;103290;1308;22612;-58
2024/02/10 02:28:21;;;;;;;97.00;42.70;;;;;;;3.56;97.96;98649.89;104327;1311;23813;-56
2024/02/10 02:30:47;;;;;;;100.50;42.10;;;;;;;3.58;98.05;98651.02;103210;1301;25520;-58
2024/02/10 02:33:13;;;;;;;94.70;39.50;;;;;;;3.61;97.91;98654.21;103270;1308;22657;-54
2024/02/10 02:35:46;;;;;;;87.50;39.60;;;;;;;3.60;97.86;98653.73;103226;1315;25448;-57
2024/02/10 02:38:17;;;;;;;99.80;40.80;;;;;;;3.59;97.90;98653.58;103191;1310;25676;-58
2024/02/10 02:40:42;;;;;;;98.40;41.00;;;;;;;3.58;97.82;98652.22;103240;1297;22568;-56
2024/02/10 02:43:12;;;;;;;99.10;41.00;;;;;;;3.58;97.95;98655.45;103136;1311;26373;-58
2024/02/10 02:45:39;;;;;;;93.20;41.80;;;;;;;3.59;97.93;98650.84;103287;1315;22568;-57
2024/02/10 02:48:07;;;;;;;99.90;43.50;;;;;;;3.60;97.84;98648.77;104214;1310;22566;-55
2024/02/10 02:50:34;;;;;;;100.20;43.60;;;;;;;3.61;97.84;98650.13;103744;1297;22561;-57
2024/02/10 02:53:02;;;;;;;88.40;39.70;;;;;;;3.62;98.07;98646.70;103214;1303;24439;-56
2024/02/10 02:55:30;;;;;;;105.50;42.80;;;;;;;3.62;98.06;98641.59;103406;1313;207225;-57
2024/02/10 02:58:01;;;;;;;95.60;40.60;;;;;;;3.62;97.98;98645.67;103241;1311;25439;-56
2024/02/10 03:00:29;;;;;;;108.60;42.50;;;;;;;3.61;97.83;98646.54;103238;1302;24227;-57
2024/02/10 03:02:59;;;;;;;106.10;43.20;;;;;;;3.60;97.91;98653.02;103460;1304;22569;-56
2024/02/10 03:05:25;;;;;;;106.50;43.60;;;;;;;3.60;98.10;98649.46;103216;1310;22906;-58
2024/02/10 03:07:50;;;;;;;114.10;44.70;;;;;;;3.61;98.21;98654.73;103185;1311;22598;-55
2024/02/10 03:10:16;;;;;;;95.50;41.90;;;;;;;3.61;98.05;98656.95;103262;1301;22580;-57
2024/02/10 03:12:42;;;;;;;114.50;46.10;;;;;;;3.60;98.03;98654.41;103206;1308;23224;-58
2024/02/10 03:15:09;;;;;;;126.00;49.20;;;;;;;3.59;98.14;98655.27;103151;1310;23581;-58
2024/02/10 03:17:38;;;;;;;109.40;43.20;;;;;;;3.61;98.15;98654.73;107007;1304;22274;-59
2024/02/10 03:20:05;;;;;;;109.70;46.80;;;;;;;3.62;98.13;98657.95;105259;1295;25336;-59
2024/02/10 03:22:31;;;;;;;111.10;44.30;;;;;;;3.63;98.18;98656.20;106319;1307;22584;-55
2024/02/10 03:24:57;;;;;;;112.70;43.60;;;;;;;3.68;98.24;98659.50;103302;1310;22565;-57
2024/02/10 03:27:23;;;;;;;110.80;44.60;;;;;;;3.71;98.26;98654.50;103260;1310;22703;-57
2024/02/10 03:29:50;;;;;;;113.10;44.80;;;;;;;3.74;98.31;98652.23;104950;1310;22572;-57
2024/02/10 03:32:16;;;;;;;118.60;45.30;;;;;;;3.76;98.31;98652.01;103290;1309;22683;-56
2024/02/10 03:34:42;;;;;;;114.40;44.40;;;;;;;3.78;98.24;98653.52;103248;1298;23984;-57
2024/02/10 03:37:09;;;;;;;111.70;43.20;;;;;;;3.80;98.27;98653.64;103205;1310;25178;-59
2024/02/10 03:39:36;;;;;;;109.50;42.90;;;;;;;3.80;98.18;98658.23;102987;1292;23104;-58
2024/02/10 03:42:04;;;;;;;114.30;45.20;;;;;;;3.80;98.29;98663.17;105135;1295;22580;-56
2024/02/10 03:44:30;;;;;;;113.00;43.90;;;;;;;3.83;98.35;98661.25;103777;1310;23069;-57
2024/02/10 03:46:57;;;;;;;111.20;44.20;;;;;;;3.85;98.39;98664.28;103251;1310;22766;-56
2024/02/10 03:49:23;;;;;;;115.50;44.40;;;;;;;3.86;98.48;98663.73;104564;1316;23193;-56
2024/02/10 03:51:49;;;;;;;115.70;46.40;;;;;;;3.89;98.53;98666.23;103196;1297;25281;-56
2024/02/10 03:54:14;;;;;;;112.40;46.90;;;;;;;3.93;98.59;98668.20;103269;1300;25278;-55
2024/02/10 03:56:47;;;;;;;116.90;45.10;;;;;;;3.95;98.52;98667.81;102997;1310;22565;-58
2024/02/10 03:59:15;;;;;;;115.10;47.70;;;;;;;3.97;98.55;98665.22;103248;1316;22604;-57
2024/02/10 04:01:47;;;;;;;110.80;44.60;;;;;;;3.98;98.49;98663.16;103242;1297;22620;-56
2024/02/10 04:04:13;;;;;;;109.10;44.40;;;;;;;3.99;98.54;98666.88;103191;1294;25516;-58
2024/02/10 04:06:39;;;;;;;120.90;46.80;;;;;;;4.02;98.59;98661.38;103254;1310;24510;-56
2024/02/10 04:09:06;;;;;;;120.60;47.30;;;;;;;4.03;98.60;98659.30;103202;1309;22699;-56
2024/02/10 04:11:32;;;;;;;116.10;48.40;;;;;;;4.06;98.59;98659.77;103237;1298;22577;-58
2024/02/10 04:13:58;;;;;;;114.60;44.90;;;;;;;4.06;98.58;98662.30;103284;1316;23893;-57
2024/02/10 04:16:26;;;;;;;115.00;45.50;;;;;;;4.06;98.44;98659.75;103174;1313;22736;-57
2024/02/10 04:18:53;;;;;;;118.10;47.30;;;;;;;4.06;98.44;98659.59;103275;1301;23953;-57
2024/02/10 04:21:20;;;;;;;106.30;44.00;;;;;;;4.06;98.50;98657.54;103280;1295;22709;-59
2024/02/10 04:23:45;;;;;;;112.30;46.20;;;;;;;4.08;98.63;98660.39;103213;1301;24271;-58
2024/02/10 04:26:11;;;;;;;110.90;45.50;;;;;;;4.10;98.72;98655.92;103066;1309;24515;-58
2024/02/10 04:28:36;;;;;;;125.60;46.40;;;;;;;4.11;98.55;98661.70;103127;1311;24422;-60
2024/02/10 04:31:03;;;;;;;114.20;44.50;;;;;;;4.11;98.57;98657.77;103217;1311;25323;-57
2024/02/10 04:33:29;;;;;;;125.20;48.00;;;;;;;4.13;98.72;98657.05;103236;1298;22565;-56
2024/02/10 04:35:54;;;;;;;111.00;45.80;;;;;;;4.15;98.77;98654.77;103225;1310;24242;-55
2024/02/10 04:38:22;;;;;;;118.10;45.90;;;;;;;4.17;98.89;98653.00;103233;1311;23337;-57
2024/02/10 04:40:47;;;;;;;117.50;46.10;;;;;;;4.19;98.84;98653.63;103272;1315;24174;-57
2024/02/10 04:43:13;;;;;;;118.90;46.40;;;;;;;4.21;98.91;98650.70;103170;1308;22601;-54
2024/02/10 04:45:40;;;;;;;123.40;48.00;;;;;;;4.23;99.03;98646.89;103212;1308;22849;-58
2024/02/10 04:48:12;;;;;;;108.00;44.80;;;;;;;4.26;99.05;98646.84;103249;1310;22559;-58
2024/02/10 04:50:38;;;;;;;124.90;45.70;;;;;;;4.27;98.93;98644.26;105834;1308;22647;-56
2024/02/10 04:53:07;;;;;;;122.00;46.70;;;;;;;4.28;98.88;98647.82;102956;1297;451174;-55
2024/02/10 04:55:33;;;;;;;119.50;47.00;;;;;;;4.29;98.86;98646.79;103210;1313;23039;-56
2024/02/10 04:58:03;;;;;;;117.50;46.40;;;;;;;4.31;98.97;98647.74;103266;1311;22741;-58
2024/02/10 05:00:29;;;;;;;112.40;44.90;;;;;;;4.34;98.94;98645.13;105213;1310;22562;-56
2024/02/10 05:02:54;;;;;;;114.30;45.40;;;;;;;4.35;98.87;98645.96;103245;1310;25268;-56
2024/02/10 05:05:20;;;;;;;120.20;48.70;;;;;;;4.34;98.68;98642.91;103253;1307;25539;-55
2024/02/10 05:07:47;;;;;;;121.40;47.80;;;;;;;4.34;98.76;98643.94;103235;1301;25528;-56
2024/02/10 05:10:19;;;;;;;120.90;45.90;;;;;;;4.36;98.90;98643.55;103254;1316;22723;-57
2024/02/10 05:12:49;;;;;;;108.50;45.30;;;;;;;4.38;99.05;98640.42;106929;1308;22339;-58
2024/02/10 05:15:23;;;;;;;107.00;44.10;;;;;;;4.40;99.11;98641.42;105212;1311;22563;-55
2024/02/10 05:17:50;;;;;;;106.40;44.30;;;;;;;4.43;99.17;98641.52;103274;1311;22611;-57
2024/02/10 05:20:24;;;;;;;110.90;44.70;;;;;;;4.44;99.03;98643.70;103426;1311;25360;-56
2024/02/10 05:22:51;;;;;;;105.20;43.70;;;;;;;4.44;98.81;98640.98;103265;1297;22595;-57
2024/02/10 05:25:19;;;;;;;104.40;44.00;;;;;;;4.43;98.80;98641.34;103297;1314;22566;-56
2024/02/10 05:27:46;;;;;;;101.00;43.90;;;;;;;4.42;98.76;98645.63;103269;1316;24295;-58
2024/02/10 05:30:20;;;;;;;99.40;41.70;;;;;;;4.41;98.79;98643.96;103211;1316;25268;-57
2024/02/10 05:32:52;;;;;;;108.40;44.30;;;;;;;4.41;98.82;98641.91;103178;1298;22628;-55
2024/02/10 05:35:18;;;;;;;113.10;46.10;;;;;;;4.40;98.69;98645.50;103108;1300;22579;-57
2024/02/10 05:37:56;;;;;;;101.00;43.90;;;;;;;4.39;98.89;98647.22;103197;1309;22681;-57
2024/02/10 05:40:22;;;;;;;104.70;43.30;;;;;;;4.41;98.94;98646.00;103186;1315;22591;-55
2024/02/10 05:42:53;;;;;;;109.20;45.60;;;;;;;4.42;99.00;98643.26;103201;1298;22579;-57
2024/02/10 05:45:19;;;;;;;106.70;45.40;;;;;;;4.42;99.08;98637.44;103920;1308;23076;-56
2024/02/10 05:47:50;;;;;;;104.40;44.30;;;;;;;4.45;99.14;98639.26;103215;1309;24375;-56
2024/02/10 05:50:18;;;;;;;96.90;44.20;;;;;;;4.46;99.21;98640.41;103757;1312;22582;-54
2024/02/10 05:52:47;;;;;;;106.10;44.30;;;;;;;4.47;99.12;98641.93;106985;1301;22501;-57
2024/02/10 05:55:20;;;;;;;112.90;45.00;;;;;;;4.47;99.09;98640.23;107040;1311;23226;-57
2024/02/10 05:57:47;;;;;;;97.50;43.30;;;;;;;4.48;99.05;98639.36;104338;1316;24507;-57
2024/02/10 06:00:13;;;;;;;97.50;42.00;;;;;;;4.48;98.99;98636.79;104322;1310;22687;-57
2024/02/10 06:02:41;;;;;;;95.30;41.00;;;;;;;4.49;98.96;98636.93;103315;1310;27639;-55
2024/02/10 06:05:12;;;;;;;98.40;41.50;;;;;;;4.50;98.97;98639.81;105044;1298;25600;-56
2024/02/10 06:07:39;;;;;;;96.90;41.20;;;;;;;4.51;98.95;98636.21;103202;1309;22573;-58
2024/02/10 06:10:24;;;;;;;95.60;42.10;;;;;;;4.51;98.97;98635.88;105905;1316;22691;-56
2024/02/10 06:12:51;;;;;;;93.90;40.40;;;;;;;4.51;98.93;98635.70;103322;1311;25335;-56
2024/02/10 06:15:18;;;;;;;95.70;39.50;;;;;;;4.52;99.02;98639.26;103743;1297;24247;-56
2024/02/10 06:17:45;;;;;;;89.20;41.70;;;;;;;4.53;99.12;98642.48;103193;1308;24355;-55
2024/02/10 06:20:14;;;;;;;92.60;40.80;;;;;;;4.52;99.03;98642.48;107011;1309;22296;-55
2024/02/10 06:22:47;;;;;;;86.30;38.60;;;;;;;4.54;99.06;98642.80;106148;1308;22736;-58
2024/02/10 06:25:15;;;;;;;89.00;39.90;;;;;;;4.55;99.12;98641.06;103169;1308;22830;-57
2024/02/10 06:27:47;;;;;;;93.90;41.00;;;;;;;4.57;99.14;98643.92;103170;1314;22565;-57
2024/02/10 06:30:16;;;;;;;106.20;41.50;;;;;;;4.58;99.19;98644.05;103187;1311;25641;-56
2024/02/10 06:32:46;;;;;;;100.70;43.70;;;;;;;4.59;99.15;98642.33;103443;1311;25542;-57
2024/02/10 06:35:12;;;;;;;98.20;40.60;;;;;;;4.61;99.35;98644.50;104926;1301;22639;-55
2024/02/10 06:37:40;;;;;;;101.10;43.00;;;;;;;4.63;99.40;98643.77;103198;1310;22683;-57
2024/02/10 06:40:08;;;;;;;95.60;42.00;;;;;;;4.65;99.41;98649.02;102997;1311;22595;-58
2024/02/10 06:42:35;;;;;;;99.30;44.40;;;;;;;4.67;99.34;98651.36;104344;1309;25468;-58
2024/02/10 06:45:08;;;;;;;103.00;46.50;;;;;;;4.69;99.34;98648.39;103039;1308;22660;-55
2024/02/10 06:47:37;;;;;;;102.90;43.70;;;;;;;4.70;99.31;98649.05;107031;1311;22374;-57
2024/02/10 06:50:07;;;;;;;107.80;46.20;;;;;;;4.70;99.46;98648.70;103781;1311;25455;-57
2024/02/10 06:52:34;;;;;;;94.30;42.90;;;;;;;4.73;99.55;98649.14;103260;1314;25543;-57
2024/02/10 06:55:03;;;;;;;100.40;44.50;;;;;;;4.76;99.41;98647.37;103274;1305;23526;-56
2024/02/10 06:57:29;;;;;;;103.70;45.90;;;;;;;4.78;99.59;98650.20;103214;1295;23596;-59
2024/02/10 06:59:55;;;;;;;;;;;;;;;4.82;99.55;98650.13;103253;1308;22617;-57
2024/02/10 07:02:21;;;;;;;116.90;52.70;;;;;;;4.85;99.67;98656.02;103267;1315;25678;-56
2024/02/10 07:04:52;;;;;;;99.80;45.30;;;;;;;4.87;99.75;98658.17;103186;1308;27607;-57
2024/02/10 07:07:20;;;;;;;107.10;49.20;;;;;;;4.90;99.69;98656.05;103470;1312;22565;-57
2024/02/10 07:09:46;;;;;;;108.30;47.70;;;;;;;4.93;99.71;98657.03;103234;1316;23992;-58
2024/02/10 07:12:11;;;;;;;102.40;46.80;;;;;;;4.96;99.76;98654.05;103242;1314;22681;-57
2024/02/10 07:14:38;;;;;;;99.60;46.40;;;;;;;5.00;99.75;98649.84;103145;1295;25509;-56
2024/02/10 07:17:04;;;;;;;108.20;47.20;;;;;;;5.04;99.81;98651.11;103313;1316;22591;-57
2024/02/10 07:19:35;;;;;;;111.80;48.50;;;;;;;5.10;99.79;98651.31;103313;1311;22568;-56
2024/02/10 07:22:02;;;;;;;105.40;48.00;;;;;;;5.15;99.87;98648.28;104250;1310;22586;-56
2024/02/10 07:24:27;;;;;;;;;;;;;;;5.21;99.97;98648.09;103301;1311;22565;-56
2024/02/10 07:26:56;;;;;;;108.00;47.70;;;;;;;5.27;100.00;98650.15;103281;1309;22617;-56
2024/02/10 07:29:24;;;;;;;106.30;49.20;;;;;;;5.34;100.00;98653.21;103371;1309;25278;-57
2024/02/10 07:31:50;;;;;;;99.90;47.80;;;;;;;5.40;99.95;98654.10;104729;1310;25522;-57
2024/02/10 07:34:17;;;;;;;107.30;49.60;;;;;;;5.44;99.91;98654.83;103286;1308;22564;-56
2024/02/10 07:36:43;;;;;;;109.00;49.20;;;;;;;5.49;99.98;98655.73;107007;1308;22297;-59
2024/02/10 07:39:09;;;;;;;101.20;48.70;;;;;;;5.54;100.00;98660.88;106783;1314;22653;-57
2024/02/10 07:41:38;;;;;;;99.50;45.80;;;;;;;5.61;100.00;98665.30;103254;1308;22568;-58
2024/02/10 07:44:06;;;;;;;104.30;48.30;;;;;;;5.66;100.00;98668.75;105417;1309;22605;-56
2024/02/10 07:46:34;;;;;;;102.20;47.10;;;;;;;5.71;100.00;98670.83;103694;1310;24269;-57
2024/02/10 07:49:06;;;;;;;99.90;47.40;;;;;;;5.75;100.00;98677.71;103192;1297;22618;-57
2024/02/10 07:51:34;;;;;;;94.70;46.20;;;;;;;5.79;99.99;98678.30;104887;1311;22860;-59
2024/02/10 07:54:00;;;;;;;125.30;63.30;;;;;;;5.82;100.00;98677.88;103222;1312;22589;-56
2024/02/10 07:56:29;;;;;;;126.90;62.20;;;;;;;5.84;100.00;98681.21;103269;1297;25415;-54
2024/02/10 07:58:59;;;;;;;122.40;62.90;;;;;;;5.89;100.00;98684.86;103271;1309;23062;-58
2024/02/10 08:01:28;;;;;;;112.30;58.90;;;;;;;5.93;100.00;98693.34;107000;1311;22449;-58
2024/02/10 08:03:55;;;;;;;130.40;67.80;;;;;;;5.95;100.00;98695.98;106979;1315;22420;-58
2024/02/10 08:06:30;;;;;;;134.40;71.90;;;;;;;6.00;100.00;98696.72;106991;1297;22356;-58
2024/02/10 08:08:57;;;;;;;122.10;63.90;;;;;;;6.05;100.00;98702.40;106833;1310;22405;-54
2024/02/10 08:11:25;;;;;;;122.50;57.30;;;;;;;6.07;100.00;98703.88;107007;1301;22401;-56
2024/02/10 08:13:51;;;;;;;100.20;54.10;;;;;;;6.10;100.00;98706.88;106833;1310;22508;-54
2024/02/10 08:16:25;;;;;;;111.20;61.30;;;;;;;6.13;100.00;98708.66;106857;1297;22345;-57
2024/02/10 08:18:51;;;;;;;108.30;53.10;;;;;;;6.15;100.00;98707.92;106920;1311;22329;-53
2024/02/10 08:21:26;;;;;;;103.20;49.00;;;;;;;6.14;99.99;98713.60;103393;1308;22773;-54
2024/02/10 08:23:52;;;;;;;95.10;46.70;;;;;;;6.14;99.98;98714.09;106672;1316;22451;-56
2024/02/10 08:26:20;;;;;;;96.00;46.70;;;;;;;6.16;100.00;98719.17;106619;1297;22484;-54
2024/02/10 08:28:50;;;;;;;99.80;46.60;;;;;;;6.17;100.00;98718.81;106733;1313;25291;-55
2024/02/10 08:31:17;;;;;;;108.40;48.80;;;;;;;6.19;100.00;98725.42;103429;1310;24297;-56
2024/02/10 08:33:50;;;;;;;99.00;47.50;;;;;;;6.22;100.00;98723.47;105306;1312;22842;-57
2024/02/10 08:36:19;;;;;;;106.40;50.20;;;;;;;6.25;100.00;98722.65;103408;1294;22581;-57
2024/02/10 08:38:45;;;;;;;131.70;62.00;;;;;;;6.26;100.00;98725.55;103283;1309;22596;-52
2024/02/10 08:41:11;;;;;;;179.30;89.10;;;;;;;6.28;100.00;98726.67;104101;1316;25413;-56
2024/02/10 08:43:38;;;;;;;193.60;89.70;;;;;;;6.28;100.00;98727.02;106846;1310;22275;-56
2024/02/10 08:46:07;;;;;;;128.70;58.00;;;;;;;6.30;100.00;98729.52;107009;1293;22261;-54
2024/02/10 08:48:33;;;;;;;122.50;52.70;;;;;;;6.30;100.00;98740.29;107039;1298;22254;-56
2024/02/10 08:50:58;;;;;;;130.90;50.80;;;;;;;6.30;100.00;98738.94;105601;1316;22565;-58
2024/02/10 08:53:24;;;;;;;128.30;53.00;;;;;;;6.30;100.00;98739.45;103265;1311;22863;-56
2024/02/10 08:55:50;;;;;;;138.00;55.40;;;;;;;6.32;100.00;98733.59;103332;1315;22568;-59
2024/02/10 08:58:17;;;;;;;142.30;58.30;;;;;;;6.34;100.00;98733.19;103293;1296;22779;-53
2024/02/10 09:00:46;;;;;;;135.90;58.50;;;;;;;6.34;100.00;98729.95;105715;1307;22935;-56
2024/02/10 09:03:15;;;;;;;131.40;58.80;;;;;;;6.34;100.00;98723.41;105519;1303;25997;-57
2024/02/10 09:05:41;;;;;;;156.20;61.60;;;;;;;6.36;100.00;98721.33;105116;1307;22688;-56
2024/02/10 09:08:07;;;;;;;133.70;61.50;;;;;;;6.37;100.00;98723.52;104702;1297;24367;-57
2024/02/10 09:10:33;;;;;;;134.60;60.60;;;;;;;6.39;100.00;98724.64;104715;1315;25940;-56
2024/02/10 09:12:59;;;;;;;130.90;59.30;;;;;;;6.43;100.00;98717.52;104472;1316;24102;-55
2024/02/10 09:15:26;;;;;;;137.40;59.40;;;;;;;6.47;100.00;98718.42;104468;1310;22604;-55
2024/02/10 09:17:52;;;;;;;136.90;60.20;;;;;;;6.52;100.00;98719.13;104663;1296;22588;-56
2024/02/10 09:20:18;;;;;;;126.80;57.00;;;;;;;6.56;100.00;98722.59;104413;1307;24305;-56
2024/02/10 09:22:43;;;;;;;156.70;60.80;;;;;;;6.59;100.00;98731.58;104176;1316;22658;-56
2024/02/10 09:25:10;;;;;;;135.80;57.50;;;;;;;6.61;100.00;98734.42;104354;1295;25278;-55
2024/02/10 09:27:35;;;;;;;129.70;56.70;;;;;;;6.67;100.00;98735.64;104261;1297;22609;-54
2024/02/10 09:30:03;;;;;;;152.90;58.70;;;;;;;6.71;100.00;98734.64;104321;1301;25519;-55
2024/02/10 09:32:28;;;;;;;136.50;58.10;;;;;;;6.76;100.00;98736.54;105954;1310;22560;-57
2024/02/10 09:34:55;;;;;;;143.70;60.90;;;;;;;6.78;100.00;98742.11;104482;1309;22534;-54
2024/02/10 09:37:21;;;;;;;148.30;62.00;;;;;;;6.80;100.00;98751.81;106090;1296;22595;-58
2024/02/10 09:39:47;;;;;;;148.10;62.30;;;;;;;6.81;100.00;98746.11;104488;1308;25366;-56
2024/02/10 09:42:23;;;;;;;155.20;67.00;;;;;;;6.87;100.00;98747.81;104361;1316;22600;-55
2024/02/10 09:44:49;;;;;;;156.20;66.20;;;;;;;6.97;100.00;98746.48;105850;1308;24250;-56
2024/02/10 09:47:16;;;;;;;140.20;62.00;;;;;;;7.07;100.00;98742.05;107015;1296;22287;-56
2024/02/10 09:49:43;;;;;;;125.50;57.10;;;;;;;7.17;100.00;98740.36;105447;1292;24581;-56
2024/02/10 09:52:09;;;;;;;132.90;57.00;;;;;;;7.29;100.00;98736.20;104096;1308;22112;-57
2024/02/10 09:54:36;;;;;;;121.30;57.20;;;;;;;7.38;100.00;98734.86;104761;1310;25488;-57
2024/02/10 09:57:05;;;;;;;154.60;76.30;;;;;;;7.48;100.00;98736.77;104513;1301;22584;-55
2024/02/10 09:59:31;;;;;;;133.40;65.90;;;;;;;7.59;100.00;98741.50;104664;1297;22677;-56
2024/02/10 10:01:57;;;;;;;137.80;64.10;;;;;;;7.71;100.00;98742.50;104807;1311;23460;-57
2024/02/10 10:04:23;;;;;;;129.20;62.10;;;;;;;7.80;100.00;98748.01;104763;1312;22714;-57
2024/02/10 10:06:49;;;;;;;108.30;53.60;;;;;;;7.89;100.00;98751.61;105149;1295;25085;-58
2024/02/10 10:09:18;;;;;;;114.60;52.40;;;;;;;7.99;100.00;98750.38;103926;1309;24236;-56
2024/02/10 10:11:45;;;;;;;109.20;50.90;;;;;;;8.12;100.00;98752.52;104579;1310;22582;-58
2024/02/10 10:14:16;;;;;;;105.00;53.10;;;;;;;8.24;100.00;98758.91;105901;1302;22520;-55
2024/02/10 10:16:56;;;;;;;111.50;52.70;;;;;;;8.35;100.00;98763.69;105165;1310;22611;-57
2024/02/10 10:19:22;;;;;;;133.60;59.90;;;;;;;8.44;100.00;98762.50;105958;1294;24260;-60
2024/02/10 10:21:51;;;;;;;131.10;62.80;;;;;;;8.52;100.00;98760.48;105418;1301;22580;-57
2024/02/10 10:24:16;;;;;;;114.90;56.90;;;;;;;8.60;100.00;98763.09;104612;1310;22679;-55
2024/02/10 10:26:43;;;;;;;109.60;55.00;;;;;;;8.64;100.00;98768.79;104304;1310;22611;-54
2024/02/10 10:29:11;;;;;;;103.10;55.00;;;;;;;8.66;100.00;98773.53;104380;1297;22692;-56
2024/02/10 10:31:38;;;;;;;84.90;45.90;;;;;;;8.68;100.00;98779.30;105281;1292;22575;-55
2024/02/10 10:34:06;;;;;;;78.70;41.90;;;;;;;8.66;100.00;98780.57;104446;1310;22594;-55
2024/02/10 10:36:32;;;;;;;73.40;39.20;;;;;;;8.63;100.00;98785.30;105844;1308;24354;-56
2024/02/10 10:39:02;;;;;;;79.00;38.00;;;;;;;8.61;100.00;98789.33;104431;1298;27493;-55
2024/02/10 10:41:28;;;;;;;75.00;39.40;;;;;;;8.62;100.00;98791.20;104620;1310;22602;-56
2024/02/10 10:43:58;;;;;;;78.30;37.80;;;;;;;8.61;100.00;98790.37;104586;1307;22621;-56
2024/02/10 10:46:25;;;;;;;77.20;39.00;;;;;;;8.63;100.00;98789.45;104781;1293;22523;-56
2024/02/10 10:48:50;;;;;;;76.50;38.80;;;;;;;8.65;100.00;98793.15;104548;1295;24062;-56
2024/02/10 10:51:25;;;;;;;81.90;38.90;;;;;;;8.62;100.00;98794.27;104600;1294;22608;-56
2024/02/10 10:53:51;;;;;;;73.80;39.40;;;;;;;8.56;100.00;98795.71;107115;1308;22726;-56
2024/02/10 10:56:23;;;;;;;73.00;38.30;;;;;;;8.53;100.00;98793.93;104932;1309;24248;-56
2024/02/10 10:58:55;;;;;;;82.20;40.40;;;;;;;8.52;100.00;98789.66;104655;1294;22597;-57
2024/02/10 11:01:22;;;;;;;76.10;40.40;;;;;;;8.51;100.00;98789.02;104326;1317;22783;-58
2024/02/10 11:03:48;;;;;;;73.90;38.90;;;;;;;8.52;100.00;98788.14;104197;1317;22564;-55
2024/02/10 11:06:14;;;;;;;79.50;40.80;;;;;;;8.50;100.00;98785.11;104280;1317;22520;-56
2024/02/10 11:08:40;;;;;;;81.60;41.60;;;;;;;8.51;100.00;98787.47;106981;1310;22397;-56
2024/02/10 11:11:13;;;;;;;88.20;44.20;;;;;;;8.50;100.00;98785.96;106855;1297;22572;-56
2024/02/10 11:13:38;;;;;;;86.30;44.40;;;;;;;8.52;100.00;98783.84;105841;1316;22582;-56